createdAt,value
2022-11-30T06:21:01.022Z,0.1
2022-11-30T06:23:00.798Z,0.2
2022-11-30T06:24:01.821Z,0.3
2022-11-30T06:26:05.950Z,0.4
2022-11-30T06:27:00.730Z,0.5
2022-11-30T06:29:00.789Z,0.6
2022-11-30T06:30:02.102Z,0.7
2022-11-30T06:31:06.388Z,0.8
2022-11-30T06:32:00.788Z,0.9
2022-11-30T06:33:00.735Z,1.1
2022-11-30T06:34:00.888Z,1.3
2022-11-30T06:35:01.380Z,1.5
2022-11-30T06:36:00.938Z,1.7
2022-11-30T06:37:00.773Z,1.9
2022-11-30T06:38:00.742Z,2.1
2022-11-30T06:39:00.736Z,2.4
2022-11-30T06:40:08.435Z,2.7
2022-11-30T06:41:00.941Z,3.2
2022-11-30T06:42:00.746Z,3.7
2022-11-30T06:43:00.732Z,4.1
2022-11-30T06:44:00.774Z,4.8
2022-11-30T06:45:01.559Z,5.5
2022-11-30T06:46:01.227Z,6.3
2022-11-30T06:47:00.726Z,7.2
2022-11-30T06:48:00.737Z,8.1
2022-11-30T06:49:00.772Z,9.2
2022-11-30T06:50:00.776Z,10.3
2022-11-30T06:51:00.962Z,12.1
2022-11-30T06:52:00.735Z,13.8
2022-11-30T06:53:00.773Z,15.5
2022-11-30T06:54:00.771Z,18.1
2022-11-30T06:55:00.749Z,20.6
2022-11-30T06:56:04.071Z,23.6
2022-11-30T06:57:00.733Z,26.6
2022-11-30T06:58:00.730Z,29.6
2022-11-30T06:59:00.761Z,32.9
2022-11-30T07:01:01.084Z,40.2
2022-11-30T07:02:06.049Z,44.3
2022-11-30T07:03:00.749Z,48.3
2022-11-30T07:04:00.781Z,53.5
2022-11-30T07:05:00.750Z,58.7
2022-11-30T07:06:00.947Z,64.7
2022-11-30T07:07:00.935Z,70.6
2022-11-30T07:08:00.821Z,76.5
2022-11-30T07:09:00.764Z,83.1
2022-11-30T07:10:05.757Z,89.6
2022-11-30T07:11:01.216Z,97.9
2022-11-30T07:12:00.736Z,106.1
2022-11-30T07:13:01.833Z,114.4
2022-11-30T07:14:00.827Z,126.0
2022-11-30T07:16:00.966Z,151.3
2022-11-30T07:17:00.743Z,165.1
2022-11-30T07:18:00.744Z,178.8
2022-11-30T07:19:00.997Z,196.3
2022-11-30T07:20:01.631Z,213.7
2022-11-30T07:21:00.947Z,241.1
2022-11-30T07:22:00.996Z,268.5
2022-11-30T07:23:00.749Z,295.9
2022-11-30T07:24:00.771Z,335.4
2022-11-30T07:26:01.265Z,424.7
2022-11-30T07:27:00.744Z,474.5
2022-11-30T07:28:00.744Z,524.3
2022-11-30T07:29:01.008Z,588.9
2022-11-30T07:31:01.124Z,737.8
2022-11-30T07:32:00.804Z,822.1
2022-11-30T07:33:00.741Z,906.5
2022-11-30T07:34:00.742Z,1004.5
2022-11-30T07:35:00.748Z,1102.6
2022-11-30T07:36:00.957Z,1200.2
2022-11-30T07:37:00.750Z,1297.8
2022-11-30T07:38:03.161Z,1395.4
2022-11-30T07:39:00.749Z,1482.7
2022-11-30T07:40:00.762Z,1569.9
2022-11-30T07:41:00.973Z,1657.1
2022-11-30T07:42:00.750Z,1744.2
2022-11-30T07:43:00.752Z,1831.3
2022-11-30T07:44:00.782Z,1919.5
2022-11-30T07:45:01.654Z,2007.6
2022-11-30T07:46:01.046Z,2112.7
2022-11-30T07:47:00.769Z,2217.9
2022-11-30T07:48:01.018Z,2323.0
2022-11-30T07:49:00.829Z,2481.1
2022-11-30T07:50:00.773Z,2639.3
2022-11-30T07:51:01.208Z,2845.3
2022-11-30T07:52:00.756Z,3051.3
2022-11-30T07:53:00.752Z,3257.3
2022-11-30T07:54:00.801Z,3511.7
2022-11-30T07:55:00.766Z,3766.2
2022-11-30T07:56:00.963Z,4047.5
2022-11-30T07:57:00.787Z,4328.9
2022-11-30T07:58:00.752Z,4610.2
2022-11-30T07:59:00.760Z,4881.7
2022-11-30T08:01:01.119Z,5426.3
2022-11-30T08:02:00.897Z,5699.4
2022-11-30T08:03:00.755Z,5972.5
2022-11-30T08:04:01.843Z,6253.2
2022-11-30T08:05:00.792Z,6533.9
2022-11-30T08:06:00.961Z,6805.5
2022-11-30T08:07:00.764Z,7077.1
2022-11-30T08:08:00.817Z,7348.7
2022-11-30T08:09:00.862Z,7567.1
2022-11-30T08:10:00.773Z,7785.6
2022-11-30T08:11:00.964Z,7933.8
2022-11-30T08:12:00.754Z,8082.0
2022-11-30T08:13:01.217Z,8230.2
2022-11-30T08:14:01.068Z,8349.0
2022-11-30T08:15:20.575Z,8467.8
2022-11-30T08:46:01.096Z,10103.5
2022-11-30T08:47:01.202Z,9958.0
2022-11-30T08:48:01.044Z,9885.3
2022-11-30T08:49:20.787Z,9691.8
2022-11-30T08:50:01.202Z,9562.8
2022-11-30T08:51:01.051Z,9563.7
2022-11-30T08:53:06.191Z,9564.9
2022-11-30T08:54:01.046Z,9638.7
2022-11-30T08:55:01.535Z,9699.1
2022-11-30T08:56:01.058Z,9795.9
2022-11-30T08:57:01.054Z,9877.8
2022-11-30T08:58:01.047Z,9948.1
2022-11-30T08:59:01.322Z,10029.3
2022-11-30T09:26:01.091Z,12806.0
2022-11-30T09:27:00.879Z,12657.7
2022-11-30T09:28:00.842Z,12583.5
2022-11-30T09:29:01.103Z,12692.0
2022-11-30T09:31:00.894Z,12537.7
2022-11-30T09:32:01.111Z,12367.8
2022-11-30T09:33:00.847Z,12235.6
2022-11-30T09:34:01.093Z,12110.2
2022-11-30T09:35:01.170Z,12007.6
2022-11-30T09:36:00.858Z,11853.3
2022-11-30T09:37:01.888Z,11722.8
2022-11-30T09:38:00.845Z,11610.9
2022-11-30T09:39:00.871Z,11459.5
2022-11-30T09:40:01.150Z,11198.7
2022-11-30T09:41:00.888Z,10938.2
2022-11-30T09:42:00.842Z,10677.7
2022-11-30T09:43:00.848Z,10417.1
2022-11-30T09:44:00.845Z,10096.2
2022-11-30T09:46:00.895Z,9584.2
2022-11-30T09:47:00.851Z,9319.2
2022-11-30T09:48:00.847Z,9054.2
2022-11-30T09:49:00.865Z,8781.4
2022-11-30T09:50:01.068Z,8508.6
2022-11-30T09:51:01.942Z,8290.9
2022-11-30T09:52:00.841Z,8098.2
2022-11-30T09:53:00.851Z,7905.5
2022-11-30T09:54:00.865Z,7784.3
2022-11-30T09:55:01.139Z,7663.0
2022-11-30T09:56:01.143Z,7600.9
2022-11-30T09:57:00.912Z,7545.8
2022-11-30T09:58:01.957Z,7490.7
2022-11-30T09:59:00.845Z,7424.1
2022-11-30T10:01:05.128Z,7290.7
2022-11-30T10:02:00.864Z,7273.6
2022-11-30T10:03:00.910Z,7256.5
2022-11-30T10:04:00.855Z,7260.5
2022-11-30T10:05:01.078Z,7264.6
2022-11-30T10:06:00.853Z,7268.7
2022-11-30T10:07:00.848Z,7247.3
2022-11-30T10:08:00.884Z,7225.9
2022-11-30T10:09:00.874Z,7201.2
2022-11-30T10:10:31.509Z,7176.5
2022-11-30T10:11:00.854Z,7151.9
2022-11-30T10:12:00.870Z,7101.3
2022-11-30T10:13:00.886Z,7050.7
2022-11-30T10:14:00.849Z,7015.0
2022-11-30T10:15:01.941Z,6979.3
2022-11-30T10:16:00.999Z,6943.7
2022-11-30T10:17:00.857Z,6940.7
2022-11-30T10:18:00.855Z,6937.7
2022-11-30T10:19:00.858Z,6958.2
2022-11-30T10:20:01.201Z,6978.7
2022-11-30T10:21:00.852Z,6999.3
2022-11-30T10:22:00.970Z,7024.7
2022-11-30T10:23:00.856Z,7050.2
2022-11-30T10:24:00.870Z,7049.6
2022-11-30T10:25:12.488Z,7049.0
2022-11-30T10:26:00.863Z,7048.4
2022-11-30T10:27:00.862Z,7054.6
2022-11-30T10:28:24.162Z,7060.8
2022-11-30T10:29:00.842Z,7073.3
2022-11-30T10:31:00.899Z,7098.4
2022-11-30T10:32:00.911Z,7085.1
2022-11-30T10:33:00.910Z,7071.7
2022-11-30T10:34:00.861Z,7036.7
2022-11-30T10:35:01.123Z,7001.7
2022-11-30T10:36:00.865Z,6966.7
2022-11-30T10:37:00.900Z,6912.1
2022-11-30T10:38:00.869Z,6857.5
2022-11-30T10:39:00.869Z,6813.5
2022-11-30T10:40:01.075Z,6769.4
2022-11-30T10:41:00.867Z,6725.3
2022-11-30T10:42:05.880Z,6700.7
2022-11-30T10:43:00.869Z,6676.1
2022-11-30T10:44:00.884Z,6671.2
2022-11-30T10:46:00.915Z,6661.3
2022-11-30T10:47:00.920Z,6672.5
2022-11-30T10:48:00.864Z,6683.7
2022-11-30T10:49:00.991Z,6736.7
2022-11-30T10:50:01.074Z,6789.7
2022-11-30T10:51:00.862Z,6842.7
2022-11-30T10:52:00.871Z,6913.3
2022-11-30T10:53:00.862Z,6983.9
2022-11-30T10:54:00.868Z,7061.7
2022-11-30T10:55:04.756Z,7139.4
2022-11-30T10:56:00.865Z,7217.1
2022-11-30T10:57:00.899Z,7312.1
2022-11-30T10:58:01.894Z,7407.1
2022-11-30T10:59:00.882Z,7480.7
2022-11-30T11:01:00.905Z,7627.9
2022-11-30T11:02:00.885Z,7748.8
2022-11-30T11:03:00.921Z,7869.7
2022-11-30T11:04:00.891Z,7932.5
2022-11-30T11:05:01.093Z,7995.3
2022-11-30T11:06:01.127Z,8058.1
2022-11-30T11:07:00.926Z,8201.6
2022-11-30T11:08:06.148Z,8345.1
2022-11-30T11:09:00.869Z,8487.5
2022-11-30T11:10:01.086Z,8629.9
2022-11-30T11:11:00.958Z,8772.3
2022-11-30T11:12:00.883Z,8880.7
2022-11-30T11:13:01.894Z,8989.0
2022-11-30T11:14:00.868Z,9106.3
2022-11-30T11:15:02.160Z,9223.7
2022-11-30T11:16:00.988Z,9341.0
2022-11-30T11:17:00.893Z,9304.5
2022-11-30T11:18:00.876Z,9268.1
2022-11-30T11:19:00.870Z,9229.3
2022-11-30T11:20:01.153Z,9190.5
2022-11-30T11:21:04.302Z,9151.7
2022-11-30T11:22:00.921Z,9039.7
2022-11-30T11:23:00.866Z,8927.7
2022-11-30T11:24:00.869Z,8873.9
2022-11-30T11:25:01.137Z,8820.2
2022-11-30T11:26:00.875Z,8766.5
2022-11-30T11:27:01.142Z,8694.3
2022-11-30T11:28:00.875Z,8622.2
2022-11-30T11:29:00.895Z,8533.2
2022-11-30T11:30:01.709Z,8444.2
2022-11-30T11:31:00.907Z,8355.2
2022-11-30T11:32:00.925Z,8357.1
2022-11-30T11:33:00.873Z,8359.1
2022-11-30T11:34:00.878Z,8371.0
2022-11-30T11:35:04.297Z,8382.9
2022-11-30T11:36:00.895Z,8394.9
2022-11-30T11:37:00.979Z,8433.2
2022-11-30T11:38:00.875Z,8471.5
2022-11-30T11:39:00.876Z,8402.5
2022-11-30T11:40:02.444Z,8333.5
2022-11-30T11:41:00.876Z,8264.5
2022-11-30T11:42:00.908Z,8246.9
2022-11-30T11:43:00.872Z,8229.2
2022-11-30T11:44:00.874Z,8190.2
2022-11-30T11:46:00.950Z,8112.2
2022-11-30T11:47:05.494Z,8093.9
2022-11-30T11:48:00.879Z,8075.7
2022-11-30T11:49:00.884Z,8032.1
2022-11-30T11:50:01.413Z,7988.5
2022-11-30T11:51:08.718Z,7944.9
2022-11-30T11:52:00.879Z,7854.4
2022-11-30T11:53:00.881Z,7763.9
2022-11-30T11:54:00.921Z,7715.3
2022-11-30T11:55:01.099Z,7666.6
2022-11-30T11:56:00.879Z,7617.9
2022-11-30T11:57:00.884Z,7556.9
2022-11-30T11:58:00.875Z,7495.8
2022-11-30T11:59:00.885Z,7480.5
2022-11-30T12:01:17.061Z,7450.0
2022-11-30T12:02:01.901Z,7438.9
2022-11-30T12:03:01.026Z,7427.9
2022-11-30T12:04:00.999Z,7469.9
2022-11-30T12:05:01.663Z,7511.9
2022-11-30T12:06:01.196Z,7553.9
2022-11-30T12:07:00.901Z,7629.4
2022-11-30T12:08:01.248Z,7704.9
2022-11-30T12:09:00.888Z,7779.5
2022-11-30T12:10:01.410Z,7854.0
2022-11-30T12:11:00.891Z,7928.5
2022-11-30T12:12:01.171Z,8004.7
2022-11-30T12:13:00.884Z,8080.9
2022-11-30T12:14:00.879Z,8158.2
2022-11-30T12:15:02.695Z,8235.5
2022-11-30T12:16:00.910Z,8312.7
2022-11-30T12:17:00.883Z,8369.6
2022-11-30T12:18:00.881Z,8426.5
2022-11-30T12:19:00.912Z,8419.9
2022-11-30T12:20:01.102Z,8413.3
2022-11-30T12:21:01.162Z,8406.7
2022-11-30T12:22:00.890Z,8363.5
2022-11-30T12:23:00.884Z,8320.4
2022-11-30T12:24:00.891Z,8290.3
2022-11-30T12:25:05.620Z,8260.1
2022-11-30T12:26:01.147Z,8230.0
2022-11-30T12:27:00.887Z,8172.8
2022-11-30T12:28:00.883Z,8115.6
2022-11-30T12:29:00.884Z,8020.3
2022-11-30T12:30:03.764Z,7924.9
2022-11-30T12:31:00.908Z,7829.6
2022-11-30T12:32:00.893Z,7736.7
2022-11-30T12:33:00.973Z,7643.7
2022-11-30T12:34:01.165Z,7585.3
2022-11-30T12:35:01.140Z,7526.8
2022-11-30T12:36:00.908Z,7468.3
2022-11-30T12:37:00.895Z,7422.5
2022-11-30T12:38:00.941Z,7376.6
2022-11-30T12:39:00.896Z,7311.7
2022-11-30T12:40:01.111Z,7246.7
2022-11-30T12:41:00.888Z,7181.8
2022-11-30T12:42:00.890Z,7121.0
2022-11-30T12:43:00.980Z,7060.2
2022-11-30T12:44:00.892Z,7035.3
2022-11-30T12:45:01.742Z,7010.5
2022-11-30T12:46:00.895Z,6985.6
2022-11-30T12:47:00.944Z,6967.2
2022-11-30T12:48:00.923Z,6948.8
2022-11-30T12:49:01.212Z,6979.4
2022-11-30T12:50:01.393Z,7010.0
2022-11-30T12:51:00.910Z,7040.6
2022-11-30T12:52:00.896Z,7087.8
2022-11-30T12:53:01.978Z,7135.0
2022-11-30T12:54:00.900Z,7255.7
2022-11-30T12:55:01.120Z,7376.3
2022-11-30T12:56:00.972Z,7497.0
2022-11-30T12:57:01.997Z,7638.6
2022-11-30T12:58:00.933Z,7780.2
2022-11-30T12:59:01.242Z,7912.9
2022-11-30T13:00:03.340Z,8045.5
2022-11-30T13:01:00.943Z,8178.2
2022-11-30T13:02:01.075Z,8370.7
2022-11-30T13:03:00.907Z,8563.3
2022-11-30T13:04:00.919Z,8825.9
2022-11-30T13:05:01.528Z,9088.5
2022-11-30T13:06:00.929Z,9351.1
2022-11-30T13:07:00.932Z,9690.7
2022-11-30T13:08:01.320Z,10030.4
2022-11-30T13:09:00.911Z,10341.7
2022-11-30T13:10:01.208Z,10653.1
2022-11-30T13:11:00.927Z,10964.4
2022-11-30T13:12:00.918Z,11234.5
2022-11-30T13:13:00.920Z,11504.5
2022-11-30T13:14:00.913Z,11782.7
2022-11-30T13:16:00.933Z,12339.1
2022-11-30T13:17:00.911Z,12583.5
2022-11-30T13:18:00.906Z,12827.9
2022-11-30T13:19:01.940Z,12860.2
2022-11-30T13:20:01.132Z,12892.5
2022-11-30T13:21:06.305Z,12924.7
2022-11-30T13:22:00.928Z,12687.3
2022-11-30T13:23:00.965Z,12449.9
2022-11-30T13:24:00.915Z,12166.9
2022-11-30T13:25:01.408Z,11883.9
2022-11-30T13:26:09.073Z,11600.9
2022-11-30T13:27:00.915Z,11420.1
2022-11-30T13:28:00.944Z,11239.3
2022-11-30T13:29:00.913Z,11062.9
2022-11-30T13:30:02.048Z,10886.5
2022-11-30T13:31:02.010Z,10710.1
2022-11-30T13:32:00.914Z,10353.2
2022-11-30T13:33:00.914Z,9996.3
2022-11-30T13:34:00.909Z,9641.9
2022-11-30T13:35:01.392Z,9287.6
2022-11-30T13:36:00.915Z,8933.3
2022-11-30T13:37:00.919Z,8716.8
2022-11-30T13:38:20.650Z,8500.3
2022-11-30T13:39:00.923Z,8371.3
2022-11-30T13:40:01.134Z,8242.3
2022-11-30T13:41:00.915Z,8113.3
2022-11-30T13:42:00.917Z,7910.8
2022-11-30T13:43:00.915Z,7708.3
2022-11-30T13:44:00.913Z,7534.1
2022-11-30T13:45:01.639Z,7359.9
2022-11-30T13:46:00.914Z,7185.7
2022-11-30T13:47:01.016Z,7069.1
2022-11-30T13:48:00.919Z,6952.5
2022-11-30T13:49:01.189Z,6889.8
2022-11-30T13:50:01.204Z,6827.1
2022-11-30T13:51:00.915Z,6764.5
2022-11-30T13:52:21.924Z,6651.6
2022-11-30T13:53:00.979Z,6538.7
2022-11-30T13:54:18.245Z,6335.1
2022-11-30T13:55:01.414Z,6131.5
2022-11-30T13:56:00.917Z,5927.9
2022-11-30T13:57:00.923Z,5726.5
2022-11-30T13:58:00.944Z,5525.1
2022-11-30T13:59:00.921Z,5302.1
2022-11-30T14:01:01.103Z,4856.1
2022-11-30T14:02:00.978Z,4759.1
2022-11-30T14:03:00.926Z,4662.1
2022-11-30T14:04:00.987Z,4589.0
2022-11-30T14:05:15.941Z,4515.9
2022-11-30T14:06:01.062Z,4442.7
2022-11-30T14:07:00.935Z,4479.7
2022-11-30T14:08:01.334Z,4516.7
2022-11-30T14:09:00.922Z,4568.7
2022-11-30T14:10:05.971Z,4620.6
2022-11-30T14:11:01.133Z,4672.5
2022-11-30T14:12:01.199Z,4701.3
2022-11-30T14:13:00.947Z,4730.0
2022-11-30T14:14:00.924Z,4677.7
2022-11-30T14:15:01.530Z,4625.5
2022-11-30T14:16:01.475Z,4573.2
2022-11-30T14:17:00.929Z,4439.8
2022-11-30T14:18:00.932Z,4306.4
2022-11-30T14:19:00.925Z,4214.5
2022-11-30T14:20:00.943Z,4122.5
2022-11-30T14:21:01.241Z,4030.6
2022-11-30T14:22:00.930Z,3925.1
2022-11-30T14:23:01.005Z,3819.5
2022-11-30T14:24:00.939Z,3659.5
2022-11-30T14:25:00.936Z,3499.4
2022-11-30T14:26:02.304Z,3339.3
2022-11-30T14:27:00.932Z,3166.4
2022-11-30T14:28:00.933Z,2993.5
2022-11-30T14:29:00.938Z,2870.1
2022-11-30T14:30:01.857Z,2746.8
2022-11-30T14:31:01.468Z,2623.5
2022-11-30T14:32:00.931Z,2554.3
2022-11-30T14:33:00.931Z,2485.1
2022-11-30T14:34:00.934Z,2395.5
2022-11-30T14:35:00.965Z,2306.0
2022-11-30T14:36:01.158Z,2216.5
2022-11-30T14:37:01.212Z,2112.7
2022-11-30T14:38:00.936Z,2008.9
2022-11-30T14:39:00.934Z,1953.4
2022-11-30T14:40:00.948Z,1897.9
2022-11-30T14:41:01.137Z,1842.5
2022-11-30T14:42:00.965Z,1795.7
2022-11-30T14:43:00.932Z,1749.0
2022-11-30T14:44:00.935Z,1686.6
2022-11-30T14:46:04.968Z,1561.8
2022-11-30T14:47:00.986Z,1488.5
2022-11-30T14:48:00.951Z,1415.1
2022-11-30T14:49:00.978Z,1334.1
2022-11-30T14:50:00.962Z,1253.0
2022-11-30T14:51:01.150Z,1171.9
2022-11-30T14:52:00.945Z,1093.2
2022-11-30T14:53:00.932Z,1014.5
2022-11-30T14:54:01.200Z,936.1
2022-11-30T14:55:00.953Z,857.8
2022-11-30T14:56:01.151Z,779.5
2022-11-30T14:57:00.947Z,721.8
2022-11-30T14:58:05.548Z,664.1
2022-11-30T14:59:01.014Z,622.9
2022-11-30T15:01:16.029Z,540.5
2022-11-30T15:02:01.167Z,509.4
2022-11-30T15:03:00.975Z,478.3
2022-11-30T15:04:00.951Z,453.0
2022-11-30T15:05:00.955Z,427.7
2022-11-30T15:06:01.199Z,402.5
